Map

Track Data

SID SEASON NUMBER BASIN SUBBASIN NAME ISO_TIME NATURE LAT LON WMO_WIND WMO_PRES WMO_AGENCY TRACK_TYPE DIST2LAND LANDFALL IFLAG USA_AGENCY USA_ATCF_ID USA_LAT USA_LON USA_RECORD USA_STATUS USA_WIND USA_PRES USA_SSHS USA_R34_NE USA_R34_SE USA_R34_SW USA_R34_NW USA_R50_NE USA_R50_SE USA_R50_SW USA_R50_NW USA_R64_NE USA_R64_SE USA_R64_SW USA_R64_NW USA_POCI USA_ROCI USA_RMW USA_EYE TOKYO_LAT TOKYO_LON TOKYO_GRADE TOKYO_WIND TOKYO_PRES TOKYO_R50_DIR TOKYO_R50_LONG TOKYO_R50_SHORT TOKYO_R30_DIR TOKYO_R30_LONG TOKYO_R30_SHORT TOKYO_LAND CMA_LAT CMA_LON CMA_CAT CMA_WIND CMA_PRES HKO_LAT HKO_LON HKO_CAT HKO_WIND HKO_PRES NEWDELHI_LAT NEWDELHI_LON NEWDELHI_GRADE NEWDELHI_WIND NEWDELHI_PRES NEWDELHI_CI NEWDELHI_DP NEWDELHI_POCI REUNION_LAT REUNION_LON REUNION_TYPE REUNION_WIND REUNION_PRES REUNION_TNUM REUNION_CI REUNION_RMW REUNION_R34_NE REUNION_R34_SE REUNION_R34_SW REUNION_R34_NW REUNION_R50_NE REUNION_R50_SE REUNION_R50_SW REUNION_R50_NW REUNION_R64_NE REUNION_R64_SE REUNION_R64_SW REUNION_R64_NW BOM_LAT BOM_LON BOM_TYPE BOM_WIND BOM_PRES BOM_TNUM BOM_CI BOM_RMW BOM_R34_NE BOM_R34_SE BOM_R34_SW BOM_R34_NW BOM_R50_NE BOM_R50_SE BOM_R50_SW BOM_R50_NW BOM_R64_NE BOM_R64_SE BOM_R64_SW BOM_R64_NW BOM_ROCI BOM_POCI BOM_EYE BOM_POS_METHOD BOM_PRES_METHOD NADI_LAT NADI_LON NADI_CAT NADI_WIND NADI_PRES WELLINGTON_LAT WELLINGTON_LON WELLINGTON_WIND WELLINGTON_PRES DS824_LAT DS824_LON DS824_STAGE DS824_WIND DS824_PRES TD9636_LAT TD9636_LON TD9636_STAGE TD9636_WIND TD9636_PRES TD9635_LAT TD9635_LON TD9635_WIND TD9635_PRES TD9635_ROCI NEUMANN_LAT NEUMANN_LON NEUMANN_CLASS NEUMANN_WIND NEUMANN_PRES MLC_LAT MLC_LON MLC_CLASS MLC_WIND MLC_PRES USA_GUST BOM_GUST BOM_GUST_PER REUNION_GUST REUNION_GUST_PER USA_SEAHGT USA_SEARAD_NE USA_SEARAD_SE USA_SEARAD_SW USA_SEARAD_NW STORM_SPEED STORM_DIR
1912052S15054 1912 10 SI MM NOT_NAMED 1912-02-21 06:00:00 NR -15.1000 53.5000 reunion main 322 321 _____O________ -1 -15.1000 53.5000 99 9.90000 5 171
1912052S15054 1912 10 SI MM NOT_NAMED 1912-02-21 09:00:00 NR -15.3472 53.5328 main 321 321 _____P________ -1 -15.3472 53.5328 99 5 172
1912052S15054 1912 10 SI MM NOT_NAMED 1912-02-21 12:00:00 NR -15.5970 53.5672 main 333 333 _____P________ -1 -15.5970 53.5672 99 5 172
1912052S15054 1912 10 SI MM NOT_NAMED 1912-02-21 15:00:00 NR -15.8521 53.6049 main 336 336 _____P________ -1 -15.8521 53.6049 99 4 165
1912052S15054 1912 10 SI MM NOT_NAMED 1912-02-21 18:00:00 NR -15.9521 53.6580 main 349 349 _____P____O___ -1 -16.1151 53.6475 99 -15.3000 53.7000 7 4 161
1912052S15054 1912 10 SI MM NOT_NAMED 1912-02-21 21:00:00 NR -16.2040 53.7269 main 354 354 _____P____P___ -1 -16.3888 53.6967 99 -15.8344 53.7873 7 6 166
1912052S15054 1912 10 SI MM NOT_NAMED 1912-02-22 00:00:00 NR -16.5426 53.8080 main 373 373 _____P____P___ -1 -16.6757 53.7540 99 -16.3651 53.8799 7 8 167
1912052S15054 1912 10 SI MM NOT_NAMED 1912-02-22 03:00:00 NR -16.9334 53.9019 main 400 400 _____P____P___ -1 -16.9786 53.8212 99 -16.8882 53.9825 7 8 167
1912052S15054 1912 10 SI MM NOT_NAMED 1912-02-22 06:00:00 NR -17.3500 54.0000 reunion main 428 390 _____O____O___ -1 -17.3000 53.9000 99 9.90000 -17.4000 54.1000 7 9 166
1912052S15054 1912 10 SI MM NOT_NAMED 1912-02-22 09:00:00 NR -17.7687 54.1136 main 379 333 _____P____P___ -1 -17.6416 53.9917 99 -17.8959 54.2356 7 9 165
1912052S15054 1912 10 SI MM NOT_NAMED 1912-02-22 12:00:00 NR -18.1840 54.2408 main 333 284 _____P____P___ -1 -18.0005 54.0966 99 -18.3674 54.3849 7 9 163
1912052S15054 1912 10 SI MM NOT_NAMED 1912-02-22 15:00:00 NR -18.5891 54.3783 main 284 238 _____P____P___ -1 -18.3728 54.2147 99 -18.8053 54.5418 7 8 161
1912052S15054 1912 10 SI MM NOT_NAMED 1912-02-22 18:00:00 NR -18.9774 54.5229 main 238 200 _____P____O___ -1 -18.7548 54.3458 99 -19.2000 54.7000 7 8 160
1912052S15054 1912 10 SI MM NOT_NAMED 1912-02-22 21:00:00 NR -19.3345 54.6642 main 200 154 _____P____P___ -1 -19.1423 54.4900 99 -19.5267 54.8385 7 8 159
1912052S15054 1912 10 SI MM NOT_NAMED 1912-02-23 00:00:00 NR -19.6732 54.8128 main 154 116 _____P____P___ -1 -19.5316 54.6471 99 -19.8148 54.9785 7 7 157
1912052S15054 1912 10 SI MM NOT_NAMED 1912-02-23 03:00:00 NR -20.0071 54.9732 main 116 81 _____P____P___ -1 -19.9188 54.8172 99 -20.0955 55.1292 7 8 155
1912052S15054 1912 10 SI MM NOT_NAMED 1912-02-23 06:00:00 NR -20.3500 55.1500 reunion main 78 33 _____O____O___ -1 -20.3000 55.0000 99 9.90000 -20.4000 55.3000 7 8 155
1912052S15054 1912 10 SI MM NOT_NAMED 1912-02-23 09:00:00 NR -20.7211 55.3343 main 33 0 _____P____P___ -1 -20.6586 55.1614 99 -20.7835 55.5072 7 8 155
1912052S15054 1912 10 SI MM NOT_NAMED 1912-02-23 12:00:00 NR -21.1028 55.5341 main 0 0 _____P____P___ -1 -21.0129 55.3336 99 -21.1926 55.7346 7 9 153
1912052S15054 1912 10 SI MM NOT_NAMED 1912-02-23 15:00:00 NR -21.4847 55.7450 main 15 15 _____P____P___ -1 -21.3639 55.5202 99 -21.6054 55.9698 7 9 152
1912052S15054 1912 10 SI MM NOT_NAMED 1912-02-23 18:00:00 NR -21.8562 55.9624 main 69 69 _____P____O___ -1 -21.7125 55.7249 99 -22.0000 56.2000 7 8 152
1912052S15054 1912 10 SI MM NOT_NAMED 1912-02-23 21:00:00 NR -22.1946 56.1577 main 108 108 _____P____P___ -1 -22.0595 55.9514 99 -22.3297 56.3641 7 8 151
1912052S15054 1912 10 SI MM NOT_NAMED 1912-02-24 00:00:00 NR -22.5237 56.3655 main 147 147 _____P____P___ -1 -22.4059 56.2035 99 -22.6414 56.5275 7 8 148
1912052S15054 1912 10 SI MM NOT_NAMED 1912-02-24 03:00:00 NR -22.8550 56.6060 main 196 196 _____P____P___ -1 -22.7525 56.4851 99 -22.9575 56.7270 7 8 144
1912052S15054 1912 10 SI MM NOT_NAMED 1912-02-24 06:00:00 NR -23.2000 56.9000 reunion main 240 240 _____O____O___ -1 -23.1000 56.8000 99 9.90000 -23.3000 57.0000 7 10 140
1912052S15054 1912 10 SI MM NOT_NAMED 1912-02-24 09:00:00 NR -23.6084 57.2905 main 299 299 _____P____P___ -1 -23.4915 57.1745 99 -23.7254 57.4065 7 11 137
1912052S15054 1912 10 SI MM NOT_NAMED 1912-02-24 12:00:00 NR -24.0307 57.7376 main 359 359 _____P____P___ -1 -23.8878 57.5875 99 -24.1735 57.8878 7 12 135
1912052S15054 1912 10 SI MM NOT_NAMED 1912-02-24 15:00:00 NR -24.4452 58.2147 main 424 424 _____P____P___ -1 -24.2806 58.0290 99 -24.6098 58.4004 7 12 133
1912052S15054 1912 10 SI MM NOT_NAMED 1912-02-24 18:00:00 NR -24.8307 58.6944 main 490 490 _____P____O___ -1 -24.6613 58.4889 99 -25.0000 58.9000 7 11 130
1912052S15054 1912 10 SI MM NOT_NAMED 1912-02-24 21:00:00 NR -25.1707 59.1540 main 547 547 _____P____P___ -1 -25.0217 58.9567 99 -25.3196 59.3512 7 10 128
1912052S15054 1912 10 SI MM NOT_NAMED 1912-02-25 00:00:00 NR -25.4505 59.5661 main 591 591 _____P____P___ -1 -25.3537 59.4218 99 -25.5797 59.7584 7 9 126
1912052S15054 1912 10 SI MM NOT_NAMED 1912-02-25 03:00:00 NR -25.6994 59.9610 main 626 626 _____P____P___ -1 -25.6490 59.8733 99 -25.8000 60.1363 7 8 124
1912052S15054 1912 10 SI MM NOT_NAMED 1912-02-25 06:00:00 NR -25.9200 60.3400 reunion main 659 659 _____O____O___ -1 -25.9000 60.3000 99 9.90000 -26.0000 60.5000 7 8 121
1912052S15054 1912 10 SI MM NOT_NAMED 1912-02-25 09:00:00 NR -26.1012 60.6933 main 696 696 _____P________ -1 -26.1012 60.6933 99 7 7 118
1912052S15054 1912 10 SI MM NOT_NAMED 1912-02-25 12:00:00 NR -26.2568 61.0546 main 735 735 _____P________ -1 -26.2568 61.0546 99 7 7 114
1912052S15054 1912 10 SI MM NOT_NAMED 1912-02-25 15:00:00 NR -26.3735 61.3883 main 759 759 _____P________ -1 -26.3735 61.3883 99 7 6 109
1912052S15054 1912 10 SI MM NOT_NAMED 1912-02-25 18:00:00 NR -26.4579 61.6988 main 784 784 _____P________ -1 -26.4579 61.6988 99 6 105
1912052S15054 1912 10 SI MM NOT_NAMED 1912-02-25 21:00:00 NR -26.5163 61.9906 main 800 800 _____P________ -1 -26.5163 61.9906 99 5 101
1912052S15054 1912 10 SI MM NOT_NAMED 1912-02-26 00:00:00 NR -26.5552 62.2682 main 827 827 _____P________ -1 -26.5552 62.2682 99 5 98
1912052S15054 1912 10 SI MM NOT_NAMED 1912-02-26 03:00:00 NR -26.5810 62.5365 main 838 838 _____P________ -1 -26.5810 62.5365 99 5 95
1912052S15054 1912 10 SI MM NOT_NAMED 1912-02-26 06:00:00 NR -26.6000 62.8000 reunion main 856 _____O________ -1 -26.6000 62.8000 99 9.90000 5 95

About IBTrACS Database

This database is a web-friendly format of International Best Track Archive for Climate Stewardship (IBTrACS), a global best track data archive curated by NOAA dating back to 1842.

Updated: 2021-10-21